Time;durP1;ratioP1;P1;durP2;ratioP2;P2;SDS_P1;SDS_P2;PMS_P1;PMS_P2;Temp;Humidity;BMP_temperature;BMP_pressure;BME280_temperature;BME280_humidity;BME280_pressure;Samples;Min_cycle;Max_cycle;Signal;HPM_P1;HPM_P2
2023/09/10 04:17:53;;;;;;;5.90;2.72;;;;;;;15.68;65.61;100122.88;10353986;28;20053;-86
2023/09/10 04:22:56;;;;;;;11.48;2.75;;;;;;;15.51;65.64;100128.63;10342578;28;20137;-86
2023/09/10 04:27:59;;;;;;;5.38;2.80;;;;;;;15.47;65.81;100124.50;10335569;28;20054;-86
2023/09/10 04:33:01;;;;;;;6.07;2.50;;;;;;;15.49;65.85;100130.53;10358364;28;20120;-87
2023/09/10 04:38:03;;;;;;;6.53;2.80;;;;;;;15.55;65.88;100131.88;10337805;28;20096;-87
2023/09/10 04:43:06;;;;;;;4.70;2.60;;;;;;;15.54;65.85;100128.38;10327922;28;20049;-87
2023/09/10 04:48:08;;;;;;;5.68;2.70;;;;;;;15.55;65.58;100131.88;10321504;28;20054;-87
2023/09/10 04:53:13;;;;;;;4.55;2.33;;;;;;;15.53;65.65;100142.50;10360983;28;20577;-85
2023/09/10 04:58:15;;;;;;;30.90;4.28;;;;;;;15.47;65.69;100144.78;10332763;28;20492;-87
2023/09/10 05:03:18;;;;;;;7.22;3.13;;;;;;;15.43;65.85;100144.16;10356807;28;20057;-87
2023/09/10 05:08:20;;;;;;;7.70;2.80;;;;;;;15.47;65.83;100148.22;10352176;28;20042;-87
2023/09/10 05:13:24;;;;;;;30.48;3.28;;;;;;;15.30;65.75;100148.69;10337893;28;20048;-88
2023/09/10 05:18:26;;;;;;;4.10;2.25;;;;;;;15.12;66.31;100158.78;10340951;28;20069;-87
2023/09/10 05:23:29;;;;;;;25.15;3.05;;;;;;;15.22;66.30;100159.81;10397076;28;20045;-86
2023/09/10 05:28:33;;;;;;;5.07;2.63;;;;;;;15.39;65.88;100158.50;10390822;28;20048;-87
2023/09/10 05:33:35;;;;;;;8.13;2.80;;;;;;;15.61;65.58;100166.53;10382417;28;20076;-88
2023/09/10 05:38:37;;;;;;;3.70;2.20;;;;;;;15.76;65.39;100159.19;10397771;28;20038;-87
2023/09/10 05:43:40;;;;;;;5.45;2.83;;;;;;;16.00;64.85;100162.56;10382061;28;20168;-87
2023/09/10 05:48:43;;;;;;;8.68;2.60;;;;;;;16.10;64.64;100166.19;10371531;28;20069;-88
2023/09/10 05:53:45;;;;;;;7.25;3.15;;;;;;;16.24;64.38;100158.84;10356583;28;20413;-87
2023/09/10 05:58:48;;;;;;;4.93;2.53;;;;;;;16.33;64.23;100156.41;10377429;28;20103;-86
2023/09/10 06:03:51;;;;;;;4.30;2.60;;;;;;;16.47;63.97;100164.94;10363984;28;20140;-87
2023/09/10 06:08:53;;;;;;;6.47;2.22;;;;;;;16.57;63.82;100165.06;10361304;28;20054;-87
2023/09/10 06:13:56;;;;;;;6.20;2.50;;;;;;;16.60;63.68;100165.66;10355988;28;20067;-87
2023/09/10 06:18:58;;;;;;;6.22;2.30;;;;;;;16.71;63.78;100178.00;10375420;28;20057;-87
2023/09/10 06:24:00;;;;;;;4.28;2.15;;;;;;;16.85;63.75;100175.06;10402693;28;20052;-87
2023/09/10 06:29:02;;;;;;;5.70;3.05;;;;;;;17.01;63.53;100175.47;10354939;28;20574;-87
2023/09/10 06:34:05;;;;;;;4.03;2.22;;;;;;;17.13;63.41;100179.75;10384699;28;20049;-88
2023/09/10 06:39:08;;;;;;;4.15;2.15;;;;;;;17.18;63.36;100171.44;10374253;28;20072;-88
2023/09/10 06:44:10;;;;;;;11.02;2.63;;;;;;;17.31;63.00;100180.84;10349584;28;20053;-87
2023/09/10 06:49:13;;;;;;;7.72;2.92;;;;;;;17.49;62.91;100181.13;10383768;28;20176;-88
2023/09/10 06:54:15;;;;;;;5.88;2.45;;;;;;;17.59;62.87;100182.88;10364448;28;20053;-87
2023/09/10 06:59:17;;;;;;;5.40;2.97;;;;;;;17.76;62.65;100179.66;10360302;28;20096;-88
2023/09/10 07:30:23;;;;;;;10.07;3.55;;;;;;;16.37;67.03;100205.38;10540645;27;20547;-66
2023/09/10 07:35:25;;;;;;;8.10;3.20;;;;;;;17.23;66.43;100196.53;10542648;28;20048;-66
2023/09/10 07:40:27;;;;;;;6.70;3.00;;;;;;;18.38;64.50;100189.28;10539604;28;20399;-72
2023/09/10 07:45:29;;;;;;;12.68;4.15;;;;;;;19.45;62.45;100185.63;10520917;28;20089;-72
2023/09/10 07:50:31;;;;;;;11.38;2.80;;;;;;;20.40;60.52;100178.34;10539516;28;20046;-73
2023/09/10 07:55:37;;;;;;;7.18;3.08;;;;;;;21.24;58.57;100179.72;10536658;28;20473;-73
2023/09/10 08:00:39;;;;;;;9.02;3.95;;;;;;;21.73;57.76;100183.63;10541880;28;20564;-73
2023/09/10 08:05:41;;;;;;;4.10;2.38;;;;;;;22.34;56.64;100186.97;10536958;28;20685;-73
2023/09/10 08:10:56;;;;;;;9.38;3.13;;;;;;;22.75;55.67;100179.97;10506034;28;20097;-73
2023/09/10 08:15:58;;;;;;;4.93;2.78;;;;;;;23.20;54.79;100179.53;10505637;28;20370;-73
2023/09/10 08:21:00;;;;;;;7.00;2.80;;;;;;;23.68;53.60;100168.00;10538229;28;20514;-73
2023/09/10 08:26:03;;;;;;;6.82;2.92;;;;;;;23.97;52.99;100163.75;10511625;28;20197;-73
2023/09/10 08:31:05;;;;;;;10.30;4.05;;;;;;;24.41;52.03;100158.75;10536622;28;20036;-73
2023/09/10 08:36:07;;;;;;;8.38;2.70;;;;;;;24.75;51.44;100163.81;10527643;28;20552;-73
2023/09/10 08:41:20;;;;;;;8.93;2.97;;;;;;;24.91;50.02;100153.00;10505876;28;20058;-72
2023/09/10 08:46:29;;;;;;;8.52;2.80;;;;;;;25.23;50.27;100155.41;10496822;28;20459;-73
2023/09/10 08:51:34;;;;;;;9.18;3.40;;;;;;;25.42;49.73;100141.56;10497891;28;20062;-73
2023/09/10 08:56:37;;;;;;;6.95;3.05;;;;;;;25.50;49.50;100144.16;10484400;28;20629;-73
2023/09/10 09:01:39;;;;;;;11.48;3.00;;;;;;;25.94;48.74;100146.03;10496196;28;20567;-73
2023/09/10 09:06:47;;;;;;;7.07;2.75;;;;;;;25.99;48.38;100151.69;10477961;28;20048;-74
2023/09/10 09:11:51;;;;;;;9.50;3.05;;;;;;;26.08;48.01;100145.22;10494835;28;20330;-72
2023/09/10 09:16:53;;;;;;;4.93;2.25;;;;;;;26.08;47.91;100142.56;10496310;28;20550;-73
2023/09/10 09:21:57;;;;;;;8.20;3.15;;;;;;;26.29;47.60;100145.28;10499448;28;20036;-73
2023/09/10 09:27:01;;;;;;;8.40;2.95;;;;;;;26.61;46.79;100134.13;10493191;28;20048;-73
2023/09/10 09:32:03;;;;;;;8.70;2.90;;;;;;;26.94;46.58;100135.31;10499800;28;20055;-73
2023/09/10 09:37:05;;;;;;;13.95;3.58;;;;;;;27.18;46.27;100126.06;10498114;28;20314;-73
2023/09/10 09:42:07;;;;;;;8.90;2.97;;;;;;;27.25;46.17;100116.22;10486259;28;20133;-74
2023/09/10 09:47:13;;;;;;;9.80;2.85;;;;;;;27.45;45.07;100099.22;10502272;28;20092;-73
2023/09/10 09:52:18;;;;;;;8.52;2.70;;;;;;;27.74;45.19;100095.50;10504330;28;20054;-74
2023/09/10 09:57:20;;;;;;;7.95;2.55;;;;;;;27.91;45.15;100088.75;10497247;28;20185;-74
2023/09/10 10:02:22;;;;;;;8.98;3.03;;;;;;;28.27;44.90;100086.66;10484173;28;22015;-74
2023/09/10 10:07:26;;;;;;;14.40;2.30;;;;;;;28.34;44.96;100084.00;10486705;28;20460;-74
2023/09/10 10:12:44;;;;;;;10.52;3.22;;;;;;;28.12;43.95;100069.84;10500824;28;20044;-75
2023/09/10 10:17:47;;;;;;;7.95;2.97;;;;;;;28.18;43.95;100069.03;10496604;28;20486;-74
2023/09/10 10:22:51;;;;;;;10.55;3.03;;;;;;;28.18;43.41;100062.81;10506703;28;20040;-75
2023/09/10 10:27:55;;;;;;;7.95;2.90;;;;;;;28.30;42.42;100055.03;10502685;28;20114;-75
2023/09/10 10:32:58;;;;;;;7.88;2.88;;;;;;;28.25;42.59;100056.44;10504437;28;20574;-75
2023/09/10 10:38:05;;;;;;;5.97;2.58;;;;;;;28.67;41.61;100052.59;10501071;28;20040;-75
2023/09/10 10:43:25;;;;;;;7.40;2.83;;;;;;;28.59;38.96;100035.81;10502080;28;20121;-75
2023/09/10 10:48:32;;;;;;;8.07;2.50;;;;;;;28.58;40.91;100040.41;10484856;28;20093;-73
2023/09/10 10:53:35;;;;;;;11.38;2.20;;;;;;;28.22;40.06;100031.78;10477623;28;20092;-73
2023/09/10 10:58:40;;;;;;;11.30;2.50;;;;;;;28.13;40.42;100033.84;10498420;28;20046;-74
2023/09/10 11:03:44;;;;;;;7.53;2.13;;;;;;;28.05;38.93;100033.19;10503635;28;20052;-72
2023/09/10 11:08:47;;;;;;;8.02;2.40;;;;;;;28.20;38.96;100023.94;10491436;28;20047;-74
2023/09/10 11:14:06;;;;;;;7.15;2.30;;;;;;;28.36;38.59;100014.69;10498643;28;20543;-73
2023/09/10 11:19:47;;;;;;;4.80;2.42;;;;;;;28.46;37.22;100017.00;10497888;28;20177;-73
2023/09/10 11:25:05;;;;;;;5.45;1.90;;;;;;;28.25;36.83;100026.03;10498642;28;20056;-73
2023/09/10 11:30:14;;;;;;;5.97;2.45;;;;;;;28.40;37.51;100010.53;10498920;28;20480;-73
2023/09/10 11:35:20;;;;;;;4.50;2.00;;;;;;;28.58;37.78;100012.66;10496718;28;20153;-73
2023/09/10 11:40:24;;;;;;;6.30;2.00;;;;;;;28.54;38.18;100009.56;10475816;28;20130;-73
2023/09/10 11:45:31;;;;;;;4.70;2.00;;;;;;;28.74;38.15;100006.88;10494049;28;20062;-74
2023/09/10 11:50:33;;;;;;;5.60;2.03;;;;;;;28.78;37.77;100006.25;10500122;28;20505;-73
2023/09/10 11:55:35;;;;;;;8.15;2.22;;;;;;;28.72;37.47;99999.00;10474279;28;20155;-73
2023/09/10 12:00:41;;;;;;;12.45;2.83;;;;;;;28.87;37.14;100012.25;10478812;28;20046;-73
2023/09/10 12:05:43;;;;;;;4.90;1.90;;;;;;;28.87;37.42;99999.63;10490690;28;20048;-74
2023/09/10 12:10:45;;;;;;;9.52;2.03;;;;;;;28.85;37.16;99993.63;10496895;28;20139;-73
2023/09/10 12:15:48;;;;;;;5.85;1.90;;;;;;;29.00;36.78;99993.41;10497603;28;20131;-73
2023/09/10 12:20:51;;;;;;;5.80;2.45;;;;;;;29.11;36.13;99989.25;10492263;28;20298;-73
2023/09/10 12:25:59;;;;;;;4.78;1.98;;;;;;;29.15;36.35;99987.81;10507532;28;20056;-74
2023/09/10 12:31:02;;;;;;;7.25;2.63;;;;;;;29.20;36.75;99985.28;10490193;28;20048;-74
2023/09/10 12:36:04;;;;;;;6.80;2.25;;;;;;;29.34;36.38;99978.84;10503587;28;20067;-73
2023/09/10 12:41:07;;;;;;;6.03;1.83;;;;;;;29.36;36.06;99979.47;10501883;28;20397;-73
2023/09/10 12:46:09;;;;;;;8.65;2.78;;;;;;;29.47;36.32;99976.16;10481642;28;20101;-73
2023/09/10 12:51:13;;;;;;;6.18;1.88;;;;;;;29.54;36.08;99972.38;10501899;28;20086;-73
2023/09/10 12:56:15;;;;;;;7.28;2.10;;;;;;;29.61;35.41;99975.88;10499341;28;20040;-73
2023/09/10 13:01:19;;;;;;;7.38;2.35;;;;;;;29.60;35.50;99968.81;10498958;28;20044;-73
2023/09/10 13:06:21;;;;;;;8.50;2.30;;;;;;;29.56;35.67;99956.81;10500593;28;20406;-72
2023/09/10 13:11:23;;;;;;;8.95;1.80;;;;;;;29.69;35.36;99953.25;10481004;28;20506;-73
2023/09/10 13:16:25;;;;;;;5.10;2.25;;;;;;;29.84;35.59;99954.63;10479477;28;20090;-73
2023/09/10 13:21:28;;;;;;;6.45;1.90;;;;;;;29.87;35.36;99950.66;10482921;28;20206;-73
2023/09/10 13:26:29;;;;;;;6.78;1.92;;;;;;;29.82;35.01;99947.81;10498713;28;20079;-73
2023/09/10 13:31:32;;;;;;;6.97;2.03;;;;;;;29.93;35.38;99944.44;10505894;28;20044;-73
2023/09/10 13:36:37;;;;;;;9.68;2.20;;;;;;;29.95;34.42;99936.94;10506552;28;20040;-72
2023/09/10 13:41:39;;;;;;;4.72;2.10;;;;;;;30.12;34.32;99934.56;10504812;28;20159;-73
2023/09/10 13:46:41;;;;;;;7.32;2.53;;;;;;;30.16;34.30;99933.94;10492907;28;20312;-73
2023/09/10 13:51:44;;;;;;;6.53;2.10;;;;;;;30.31;34.05;99923.66;10501977;28;20032;-73
2023/09/10 13:56:47;;;;;;;4.95;2.03;;;;;;;30.32;34.31;99928.00;10502194;28;20055;-72
2023/09/10 14:01:49;;;;;;;8.50;1.98;;;;;;;30.34;34.34;99914.28;10488190;28;20403;-73
2023/09/10 14:06:51;;;;;;;6.38;2.33;;;;;;;30.34;34.26;99911.56;10503792;28;20070;-73
2023/09/10 14:11:52;;;;;;;8.48;2.00;;;;;;;30.36;34.52;99912.19;10504236;28;20525;-73
2023/09/10 14:16:54;;;;;;;6.57;2.17;;;;;;;30.23;33.47;99913.13;10501147;28;20055;-73
2023/09/10 14:21:56;;;;;;;6.40;2.38;;;;;;;30.19;33.79;99909.19;10505416;28;20404;-72
2023/09/10 14:26:59;;;;;;;5.32;2.50;;;;;;;30.26;33.61;99901.06;10484880;28;20054;-73
2023/09/10 14:32:01;;;;;;;7.38;2.55;;;;;;;30.29;33.61;99903.34;10507936;28;20633;-73
2023/09/10 14:37:03;;;;;;;4.28;2.25;;;;;;;30.37;33.73;99898.50;10502737;28;20133;-72
2023/09/10 14:42:05;;;;;;;5.05;2.08;;;;;;;30.25;32.46;99892.16;10507927;28;20058;-73
2023/09/10 14:47:07;;;;;;;7.75;1.90;;;;;;;30.27;32.66;99895.47;10502825;28;20046;-73
2023/09/10 14:52:09;;;;;;;7.55;2.88;;;;;;;30.19;32.37;99892.19;10507340;28;20139;-72
2023/09/10 14:57:12;;;;;;;8.52;2.15;;;;;;;30.18;32.63;99891.38;10511952;28;20063;-73
2023/09/10 15:02:15;;;;;;;6.65;2.38;;;;;;;30.37;33.12;99887.69;10506992;28;20043;-73
2023/09/10 15:07:17;;;;;;;6.20;2.05;;;;;;;30.47;32.33;99874.56;10484977;28;20422;-73
2023/09/10 15:12:20;;;;;;;7.70;2.95;;;;;;;30.42;32.64;99879.75;10479905;28;20055;-73
2023/09/10 15:17:22;;;;;;;7.30;2.30;;;;;;;30.47;32.79;99879.97;10498335;28;20047;-72
2023/09/10 15:22:24;;;;;;;5.63;2.10;;;;;;;30.39;32.90;99882.06;10504491;28;20044;-73
2023/09/10 15:27:26;;;;;;;5.85;2.10;;;;;;;30.34;32.23;99871.94;10497145;28;20040;-73
2023/09/10 15:32:30;;;;;;;7.25;2.97;;;;;;;30.38;32.45;99873.16;10491628;28;20465;-73
2023/09/10 15:37:32;;;;;;;5.13;2.15;;;;;;;30.38;32.91;99870.44;10491339;28;20048;-73
2023/09/10 15:42:34;;;;;;;6.38;2.20;;;;;;;30.37;33.37;99871.50;10491464;28;20036;-73
2023/09/10 15:47:36;;;;;;;6.57;2.40;;;;;;;30.35;33.55;99860.09;10468550;28;20289;-73
2023/09/10 15:52:39;;;;;;;4.90;1.80;;;;;;;30.29;33.94;99858.28;10481511;28;20488;-73
2023/09/10 15:57:41;;;;;;;6.45;2.67;;;;;;;30.21;34.00;99860.44;10508549;28;20051;-73
2023/09/10 16:02:46;;;;;;;8.48;2.00;;;;;;;30.11;33.78;99869.00;10527274;27;20085;-73
2023/09/10 16:07:48;;;;;;;6.00;2.05;;;;;;;30.06;34.89;99860.75;10489925;28;20821;-73
2023/09/10 16:12:50;;;;;;;6.15;2.22;;;;;;;29.89;35.52;99862.28;10511349;28;20044;-73
2023/09/10 16:17:52;;;;;;;8.52;2.13;;;;;;;29.79;35.93;99862.78;10497880;28;20069;-73
2023/09/10 16:22:55;;;;;;;6.60;2.17;;;;;;;29.61;36.17;99861.84;10511228;28;20047;-73
2023/09/10 16:27:57;;;;;;;6.72;2.00;;;;;;;29.53;36.59;99868.31;10509243;28;20044;-73
2023/09/10 16:33:00;;;;;;;6.53;2.28;;;;;;;29.40;36.78;99870.28;10509831;28;20044;-73
2023/09/10 16:38:02;;;;;;;7.88;2.10;;;;;;;29.31;36.86;99866.13;10508850;28;20377;-72
2023/09/10 16:43:04;;;;;;;6.95;2.20;;;;;;;29.18;37.97;99872.38;10492677;28;20051;-73
2023/09/10 16:48:06;;;;;;;4.85;1.95;;;;;;;29.00;38.52;99862.31;10505973;28;20055;-72
2023/09/10 16:53:08;;;;;;;10.07;2.30;;;;;;;28.78;38.63;99873.50;10508402;28;20035;-73
2023/09/10 16:58:10;;;;;;;6.43;2.10;;;;;;;28.51;39.26;99867.34;10480648;28;20443;-73
2023/09/10 17:03:12;;;;;;;10.57;2.17;;;;;;;28.24;39.64;99866.50;10490706;28;20036;-73
2023/09/10 17:08:14;;;;;;;5.85;2.28;;;;;;;27.90;40.50;99868.53;10480322;28;20403;-73
2023/09/10 17:13:18;;;;;;;7.20;2.78;;;;;;;27.60;40.89;99875.25;10501327;28;20063;-73
2023/09/10 17:18:20;;;;;;;6.50;2.17;;;;;;;27.26;41.63;99870.81;10505654;28;20136;-72
2023/09/10 17:23:22;;;;;;;7.68;2.58;;;;;;;26.92;42.10;99868.94;10502701;28;20044;-72
2023/09/10 17:28:25;;;;;;;7.13;2.00;;;;;;;26.63;42.48;99869.19;10484299;28;20484;-73
2023/09/10 17:33:27;;;;;;;6.75;2.40;;;;;;;26.35;43.50;99871.00;10502918;28;20048;-72
2023/09/10 17:38:29;;;;;;;8.40;2.47;;;;;;;26.08;44.59;99869.94;10504568;28;20044;-71
2023/09/10 17:43:31;;;;;;;6.40;2.42;;;;;;;25.82;45.23;99875.88;10502566;28;20407;-72
2023/09/10 17:48:33;;;;;;;9.35;2.35;;;;;;;25.58;45.88;99876.22;10480860;28;20047;-72
2023/09/10 17:53:35;;;;;;;8.45;2.17;;;;;;;25.27;46.70;99878.28;10499577;28;20795;-71
2023/09/10 17:58:37;;;;;;;10.68;2.80;;;;;;;25.04;47.44;99889.09;10498999;28;20048;-72
2023/09/10 18:03:40;;;;;;;4.55;2.08;;;;;;;24.82;47.97;99887.38;10493019;28;20044;-72
2023/09/10 18:08:44;;;;;;;8.82;2.28;;;;;;;24.60;48.46;99887.41;10491326;28;20407;-72
2023/09/10 18:13:48;;;;;;;8.73;2.90;;;;;;;24.35;49.18;99894.81;10477143;28;20113;-72
2023/09/10 18:18:49;;;;;;;9.88;3.17;;;;;;;24.15;49.43;99897.16;10484084;28;20054;-72
2023/09/10 18:23:51;;;;;;;5.88;2.70;;;;;;;23.99;50.04;99893.75;10501024;28;20664;-65
2023/09/10 18:28:54;;;;;;;5.93;2.55;;;;;;;23.73;50.76;99899.44;10503634;28;20062;-65
2023/09/10 18:33:56;;;;;;;7.10;2.40;;;;;;;23.58;51.33;99908.38;10504117;28;20048;-65
2023/09/10 18:39:00;;;;;;;12.05;3.08;;;;;;;23.38;51.89;99910.59;10499906;28;20040;-65
2023/09/10 18:44:15;;;;;;;7.53;2.40;;;;;;;23.25;53.09;99907.66;10490120;28;20470;-66
2023/09/10 18:49:17;;;;;;;8.35;3.15;;;;;;;23.08;52.47;99914.06;10501494;28;20742;-65
2023/09/10 18:54:19;;;;;;;7.90;3.50;;;;;;;22.97;52.66;99911.75;10504560;28;20139;-65
2023/09/10 18:59:21;;;;;;;5.90;2.42;;;;;;;22.88;52.92;99918.13;10504925;28;20048;-65
2023/09/10 19:04:23;;;;;;;8.65;2.78;;;;;;;22.68;53.28;99923.78;10501316;28;20051;-65
2023/09/10 19:09:26;;;;;;;4.53;2.47;;;;;;;22.62;53.65;99928.97;10505375;28;20298;-65
2023/09/10 19:14:30;;;;;;;6.63;2.60;;;;;;;22.28;53.78;99928.31;10503522;28;20605;-65
2023/09/10 19:19:32;;;;;;;7.55;2.85;;;;;;;22.03;54.54;99931.91;10497246;28;20491;-65
2023/09/10 19:24:35;;;;;;;6.85;3.65;;;;;;;22.02;54.70;99938.25;10504606;28;20200;-65
2023/09/10 19:29:37;;;;;;;7.75;2.72;;;;;;;22.06;54.75;99936.97;10476008;28;20055;-65
2023/09/10 19:34:44;;;;;;;9.65;2.65;;;;;;;21.94;54.99;99939.09;10499282;28;20048;-65
2023/09/10 19:39:47;;;;;;;6.47;2.35;;;;;;;21.73;55.34;99936.03;10495305;28;20048;-65
2023/09/10 19:44:51;;;;;;;8.32;2.75;;;;;;;21.62;55.56;99939.03;10492428;28;20056;-65
2023/09/10 19:49:53;;;;;;;6.57;2.95;;;;;;;21.56;55.92;99939.63;10488065;28;20203;-65
2023/09/10 19:54:55;;;;;;;9.43;2.45;;;;;;;21.45;55.86;99947.94;10504680;28;20122;-65
2023/09/10 20:00:10;;;;;;;4.90;2.28;;;;;;;21.42;55.81;99949.06;10503294;28;20040;-65
2023/09/10 20:05:12;;;;;;;6.13;2.70;;;;;;;21.41;55.77;99951.91;10502091;28;20076;-66
2023/09/10 20:10:20;;;;;;;13.48;2.83;;;;;;;21.37;55.71;99951.41;10473914;28;20048;-66
2023/09/10 20:15:22;;;;;;;10.07;2.70;;;;;;;21.33;56.09;99951.88;10504652;28;20135;-65
2023/09/10 20:20:25;;;;;;;8.52;2.67;;;;;;;21.12;56.72;99946.06;10481272;28;20486;-67
2023/09/10 20:25:27;;;;;;;8.23;2.40;;;;;;;20.91;57.20;99952.59;10505919;28;20048;-65
2023/09/10 20:30:30;;;;;;;5.95;2.53;;;;;;;20.81;57.27;99951.03;10501846;28;20592;-65
2023/09/10 20:35:38;;;;;;;11.70;2.50;;;;;;;20.74;57.49;99947.34;10507517;28;20048;-65
2023/09/10 20:40:40;;;;;;;9.43;2.50;;;;;;;20.68;57.28;99948.78;10493366;28;20139;-65
2023/09/10 20:45:43;;;;;;;7.22;2.13;;;;;;;20.64;57.23;99957.25;10528385;27;20040;-65
2023/09/10 20:50:46;;;;;;;12.00;3.03;;;;;;;20.46;57.71;99949.25;10513083;28;20062;-65
2023/09/10 20:55:48;;;;;;;4.95;2.50;;;;;;;20.47;57.73;99945.63;10492732;28;20052;-65
2023/09/10 21:00:50;;;;;;;7.90;2.60;;;;;;;20.42;57.83;99953.22;10513349;28;20044;-66
2023/09/10 21:05:56;;;;;;;6.60;2.75;;;;;;;20.36;58.28;99943.19;10512751;28;20048;-66
2023/09/10 21:10:58;;;;;;;8.45;2.53;;;;;;;20.31;58.04;99948.16;10512686;28;20499;-66
2023/09/10 21:16:00;;;;;;;11.75;3.38;;;;;;;20.14;58.47;99948.97;10511175;28;20514;-64
2023/09/10 21:21:02;;;;;;;5.50;2.92;;;;;;;20.06;58.40;99956.88;10511006;28;20048;-66
2023/09/10 21:26:05;;;;;;;7.97;2.47;;;;;;;20.00;58.77;99949.50;10524803;27;20060;-67
2023/09/10 21:31:07;;;;;;;6.47;2.40;;;;;;;19.96;58.98;99950.81;10512387;28;20062;-65
2023/09/10 21:36:10;;;;;;;6.90;2.47;;;;;;;19.91;59.04;99945.94;10477067;28;20130;-64
2023/09/10 21:41:12;;;;;;;11.32;2.80;;;;;;;19.82;59.20;99935.41;10513448;28;20048;-65
2023/09/10 21:46:14;;;;;;;6.63;2.38;;;;;;;19.79;59.42;99940.97;10510787;28;20055;-66
2023/09/10 21:51:16;;;;;;;9.52;2.45;;;;;;;19.76;59.67;99947.44;10509653;28;20520;-66
2023/09/10 21:56:18;;;;;;;8.60;2.83;;;;;;;19.67;59.65;99943.00;10509893;28;20047;-66
2023/09/10 22:01:20;;;;;;;7.28;2.70;;;;;;;19.56;60.19;99942.38;10511347;28;20459;-67
2023/09/10 22:06:22;;;;;;;8.55;2.83;;;;;;;19.44;60.30;99944.38;10510652;28;20419;-66
2023/09/10 22:11:24;;;;;;;11.35;2.88;;;;;;;19.56;60.09;99950.34;10508848;28;20040;-67
2023/09/10 22:16:26;;;;;;;6.65;3.20;;;;;;;19.42;60.27;99944.53;10509813;28;20048;-66
2023/09/10 22:21:28;;;;;;;7.65;2.58;;;;;;;19.20;60.91;99936.97;10510462;28;20044;-67
2023/09/10 22:26:30;;;;;;;7.15;2.30;;;;;;;19.16;61.20;99930.28;10489414;28;20058;-67
2023/09/10 22:31:32;;;;;;;6.88;2.47;;;;;;;19.17;60.98;99933.78;10505516;28;20167;-67
2023/09/10 22:36:34;;;;;;;6.00;2.63;;;;;;;19.13;61.09;99930.59;10505887;28;20072;-67
2023/09/10 22:41:39;;;;;;;9.32;3.72;;;;;;;19.06;61.49;99940.09;10490951;28;20064;-67
2023/09/10 22:46:42;;;;;;;6.18;2.30;;;;;;;18.93;61.32;99934.22;10491581;28;20177;-66
2023/09/10 22:51:44;;;;;;;5.65;2.70;;;;;;;18.83;61.67;99935.28;10506147;28;20492;-67
2023/09/10 22:56:46;;;;;;;8.75;3.42;;;;;;;18.74;61.94;99936.97;10507366;28;20330;-66
2023/09/10 23:01:48;;;;;;;6.25;2.60;;;;;;;18.61;62.48;99933.75;10508155;28;20059;-67
2023/09/10 23:06:50;;;;;;;5.72;2.30;;;;;;;18.55;62.64;99926.38;10489866;28;20036;-66
2023/09/10 23:11:52;;;;;;;8.20;2.72;;;;;;;18.50;62.62;99924.16;10508893;28;20055;-67
2023/09/10 23:16:54;;;;;;;9.02;2.63;;;;;;;18.52;62.60;99924.84;10506488;28;20047;-66
2023/09/10 23:21:56;;;;;;;7.85;2.97;;;;;;;18.46;62.57;99932.56;10508170;28;20657;-66
2023/09/10 23:27:01;;;;;;;7.50;2.60;;;;;;;18.44;62.51;99926.56;10491152;28;20063;-66
2023/09/10 23:32:04;;;;;;;6.10;2.40;;;;;;;18.45;62.45;99922.94;10489027;28;20059;-67
2023/09/10 23:37:06;;;;;;;5.68;2.83;;;;;;;18.36;62.74;99919.31;10507944;28;20337;-66
2023/09/10 23:42:09;;;;;;;6.50;2.10;;;;;;;18.26;63.06;99922.97;10507850;28;20093;-66
2023/09/10 23:47:11;;;;;;;7.20;2.60;;;;;;;18.22;63.26;99918.94;10505238;28;20553;-67
2023/09/10 23:52:12;;;;;;;5.20;2.70;;;;;;;18.13;63.42;99909.13;10504960;28;20055;-67
2023/09/10 23:57:14;;;;;;;5.18;2.70;;;;;;;18.12;63.44;99904.78;10506744;28;20040;-66
